aviador You're here:

OMSJ Decoded Metar

SHARJAH in UNITED ARAB EMIRATES
Report Time2017-11-24 11:00:00
UTC Time2017-11-24 11:14:49
Flight Rules vfr VFR
Wind330° at 08 kt
W.Decomp.*RWY 30: 7.0 kt HW 3.9 kt RCW
W.Rank330° ranks 12
Current wind is below 330° avg. (8.1)
Visibility9999 m
Phenomena:N/A
Clouds:N/A
Expected CloudBase > 3,600 ft AGL from Temp-Dew spread
CeilingNone
Temp27°C (ISA +12)
Dew Point18°C (58% RH)
Heat Index27.9°C
AAT26.9°C
QNH1015 hPa
Density Alt1,722 ft
Elevation108 ft
Report Wrong Elevation
Raw Report
METAR OMSJ 241100Z 33008KT CAVOK 27/18 Q1015=

Extra information for OMSJ:More info

Metar Taf Metar & Taf Last 4 Metars F.Rules Stats Wind Profile Meteogram Temp Stats Airport Information Weather charts Add Link Nearby VenuesMetar ALERT Operation Metar Decoded Social comments